Wellington, TX

7:46 AM CDT on October 24, 2014 (GMT -0500)
Childress Municipal | Change Station
CLOSE
Current Station
Airport
Location: Childress,
Elevation: 595 m
Nearby Weather Stations
Active Advisory: Special Statement

Elev 595 m 34.43 °N, 100.28 °W | Updated 53 minutes ago

Clear
Clear
15 °C
Feels Like 15 °C
N
15
Wind Variable Wind from SSW

Today
High -- | Low -- °C
--% Chance of Precip.
Yesterday
High -- | Low -- °C
Precip. -- mm
7:54 AM 6:55 PM
New Moon, 0% visible
Pressure 1017 hPa
Visibility 6.4 kilometers
Clouds Clear
Dew Point 14 °C
Humidity 93%
Rainfall 0.0 mm
Snow Depth Not available.
UV 0 out of 12
Pollen 6.30 out of 12
Air Quality Not available.
Flu Activity Sporadic
METAR KCDS 241153Z AUTO 20008KT 4SM BR CLR 15/14 A3009 RMK AO2 SLP171 T01500139 10167 20139 58000

More Conditions Fewer Conditions

Pressure 1017 hPa
Visibility 6.4 kilometers
Clouds Clear
Dew Point 14 °C
Humidity 93%
Rainfall 0.0 mm
Snow Depth Not available.
UV 0 out of 12
Pollen 6.30 out of 12
Air Quality Not available.
Flu Activity Sporadic
METAR KCDS 241153Z AUTO 20008KT 4SM BR CLR 15/14 A3009 RMK AO2 SLP171 T01500139 10167 20139 58000

More Conditions Fewer Conditions

10-Day Weather Forecast

Almanac

Astronomy

Oct. 24, 2014 Rise Set
Actual Time 7:54 AM CDT 6:55 PM CDT
Civil Twilight 7:28 AM CDT 7:20 PM CDT
Nautical Twilight 6:59 AM CDT 7:50 PM CDT
Astronomical Twilight 6:29 AM CDT 8:19 PM CDT
Moon 8:33 AM CDT 7:38 PM CDT
Length of Visible Light 11h 52m
Length of Day
11h 00m
Tomorrow will be 2m 1s shorter.
New Moon, 0% of the Moon is Illuminated
Today
New Moon
Oct 30
First Quarter
Nov 6
Full
Nov 14
Last Quarter
Nov 22
New

Today's Extremes

State Highs State Lows

Community

WunderPhotos

Upload Photos

1,764,544 photos uploaded!

Nearby

Snow Depth

Station Depth Elevation
No new snow has been reported.

Earthquake Activity

City Distance Mag. Time & Date
Mooreland, Oklahoma 214 kilometers 2.8 5:31 PM CDT
2014-10-22
Mooreland, Oklahoma 209 kilometers 2.5 11:19 AM CDT
2014-10-22
Mooreland, Oklahoma 212 kilometers 2.8 11:04 AM CDT
2014-10-22
Mooreland, Oklahoma 210 kilometers 3.5 10:58 AM CDT
2014-10-22
Minimum magnitude displayed is 2.5.

Coastal Water Temperatures

Place Temperature
No Stations Reporting

Nearby Weather Stations